createdAt,value
2019-01-13T00:02:35.547Z,98369.23
2019-01-13T00:05:15.124Z,98371.20
2019-01-13T00:07:53.800Z,98372.59
2019-01-13T00:10:32.187Z,98370.13
2019-01-13T00:13:09.209Z,98371.31
2019-01-13T00:21:39.610Z,98371.38
2019-01-13T00:24:11.394Z,98371.63
2019-01-13T00:26:46.519Z,98362.23
2019-01-13T00:32:18.300Z,98362.92
2019-01-13T00:34:57.692Z,98367.93
2019-01-13T00:37:29.769Z,98360.63
2019-01-13T00:40:16.560Z,98358.28
2019-01-13T00:42:55.833Z,98359.88
2019-01-13T00:45:32.686Z,98364.84
2019-01-13T00:48:13.796Z,98360.66
2019-01-13T00:50:54.778Z,98367.66
2019-01-13T00:53:31.421Z,98370.41
2019-01-13T00:56:03.204Z,98376.75
2019-01-13T00:58:40.394Z,98368.88
2019-01-13T01:01:12.858Z,98372.69
2019-01-13T01:03:46.233Z,98375.75
2019-01-13T01:06:24.602Z,98379.31
2019-01-13T01:09:06.054Z,98372.25
2019-01-13T01:11:50.659Z,98382.12
2019-01-13T01:14:32.496Z,98376.05
2019-01-13T01:17:04.987Z,98374.97
2019-01-13T01:19:41.659Z,98377.09
2019-01-13T01:22:22.308Z,98375.56
2019-01-13T01:25:01.988Z,98376.02
2019-01-13T01:27:38.208Z,98373.83
2019-01-13T01:30:14.476Z,98381.75
2019-01-13T01:32:59.706Z,98374.38
2019-01-13T01:35:44.449Z,98385.14
2019-01-13T01:38:27.092Z,98381.71
2019-01-13T01:41:10.415Z,98379.08
2019-01-13T01:43:41.670Z,98381.31
2019-01-13T01:46:14.314Z,98379.45
2019-01-13T01:48:44.597Z,98385.73
2019-01-13T01:51:18.659Z,98387.66
2019-01-13T01:53:50.573Z,98387.77
2019-01-13T01:56:21.648Z,98381.08
2019-01-13T01:58:53.000Z,98383.84
2019-01-13T02:01:29.218Z,98380.67
2019-01-13T02:04:01.254Z,98371.06
2019-01-13T02:06:37.217Z,98366.12
2019-01-13T02:09:11.047Z,98361.50
2019-01-13T02:11:52.329Z,98355.77
2019-01-13T02:14:29.123Z,98354.80
2019-01-13T02:17:15.501Z,98360.14
2019-01-13T02:19:47.825Z,98350.67
2019-01-13T02:22:30.605Z,98357.13
2019-01-13T02:25:02.071Z,98358.91
2019-01-13T02:27:35.767Z,98354.29
2019-01-13T02:30:11.782Z,98349.05
2019-01-13T02:32:45.874Z,98339.46
2019-01-13T02:35:22.424Z,98341.61
2019-01-13T02:37:56.663Z,98334.43
2019-01-13T02:40:30.051Z,98344.30
2019-01-13T02:43:03.839Z,98348.04
2019-01-13T02:45:40.902Z,98357.05
2019-01-13T02:48:15.982Z,98353.02
2019-01-13T02:50:51.540Z,98355.63
2019-01-13T02:53:31.945Z,98352.11
2019-01-13T02:56:08.026Z,98355.88
2019-01-13T03:01:42.577Z,98346.13
2019-01-13T03:04:16.456Z,98341.38
2019-01-13T03:06:52.337Z,98339.70
2019-01-13T03:09:31.707Z,98343.07
2019-01-13T03:12:03.736Z,98340.78
2019-01-13T03:15:00.268Z,98342.27
2019-01-13T03:17:32.129Z,98340.08
2019-01-13T03:20:06.703Z,98344.02
2019-01-13T03:22:50.451Z,98340.92
2019-01-13T03:25:33.575Z,98333.08
2019-01-13T03:28:07.808Z,98339.72
2019-01-13T03:30:41.810Z,98327.17
2019-01-13T03:33:21.123Z,98317.90
2019-01-13T03:35:52.201Z,98311.50
2019-01-13T03:38:23.970Z,98298.17
2019-01-13T03:41:04.444Z,98297.72
2019-01-13T03:43:41.466Z,98300.95
2019-01-13T03:46:24.380Z,98289.58
2019-01-13T03:51:54.635Z,98295.16
2019-01-13T03:54:30.536Z,98282.70
2019-01-13T03:57:13.280Z,98274.66
2019-01-13T04:00:02.585Z,98272.62
2019-01-13T04:02:32.839Z,98275.94
2019-01-13T04:05:06.436Z,98266.68
2019-01-13T04:07:53.516Z,98273.16
2019-01-13T04:10:35.858Z,98277.12
2019-01-13T04:13:11.342Z,98274.78
2019-01-13T04:15:45.028Z,98273.69
2019-01-13T04:18:20.552Z,98274.29
2019-01-13T04:20:54.913Z,98272.95
2019-01-13T04:23:33.317Z,98282.57
2019-01-13T04:26:11.526Z,98272.44
2019-01-13T04:28:57.726Z,98273.58
2019-01-13T04:31:34.720Z,98267.86
2019-01-13T04:34:17.426Z,98271.19
2019-01-13T04:37:15.005Z,98255.98
2019-01-13T04:39:50.729Z,98268.44
2019-01-13T04:42:31.613Z,98267.20
2019-01-13T04:45:06.428Z,98263.93
2019-01-13T04:47:43.004Z,98267.34
2019-01-13T04:50:15.862Z,98266.84
2019-01-13T04:52:49.079Z,98261.68
2019-01-13T04:55:25.733Z,98264.67
2019-01-13T04:57:56.793Z,98261.41
2019-01-13T05:00:30.801Z,98259.05
2019-01-13T05:03:20.733Z,98254.42
2019-01-13T05:05:55.913Z,98255.67
2019-01-13T05:08:28.289Z,98254.42
2019-01-13T05:10:59.443Z,98250.09
2019-01-13T05:13:29.043Z,98248.69
2019-01-13T05:16:03.765Z,98239.44
2019-01-13T05:18:33.381Z,98232.61
2019-01-13T05:21:02.949Z,98223.57
2019-01-13T05:23:36.683Z,98200.19
2019-01-13T05:26:07.313Z,98184.09
2019-01-13T05:28:39.354Z,98183.21
2019-01-13T05:31:08.966Z,98179.28
2019-01-13T05:33:41.639Z,98171.84
2019-01-13T05:36:15.167Z,98165.70
2019-01-13T05:38:49.246Z,98165.31
2019-01-13T05:41:21.249Z,98168.28
2019-01-13T05:43:50.858Z,98172.89
2019-01-13T05:46:27.722Z,98167.66
2019-01-13T05:48:58.365Z,98163.52
2019-01-13T05:51:29.813Z,98161.01
2019-01-13T05:54:04.565Z,98163.64
2019-01-13T05:56:38.074Z,98160.86
2019-01-13T05:59:13.003Z,98168.25
2019-01-13T06:01:49.334Z,98171.22
2019-01-13T06:04:23.004Z,98164.31
2019-01-13T06:07:00.556Z,98153.36
2019-01-13T06:09:34.851Z,98149.20
2019-01-13T06:12:12.121Z,98141.73
2019-01-13T06:14:52.312Z,98141.80
2019-01-13T06:17:30.788Z,98135.23
2019-01-13T06:20:07.460Z,98140.89
2019-01-13T06:22:42.742Z,98126.81
2019-01-13T06:25:18.255Z,98111.24
2019-01-13T06:27:52.407Z,98110.66
2019-01-13T06:30:25.770Z,98110.69
2019-01-13T06:33:01.033Z,98117.84
2019-01-13T06:35:39.412Z,98117.34
2019-01-13T06:38:21.728Z,98098.78
2019-01-13T06:40:57.613Z,98090.16
2019-01-13T06:43:31.076Z,98088.64
2019-01-13T06:46:04.379Z,98087.33
2019-01-13T06:48:45.240Z,98091.18
2019-01-13T06:51:17.309Z,98099.17
2019-01-13T06:53:52.262Z,98094.60
2019-01-13T06:56:23.494Z,98079.34
2019-01-13T06:58:58.916Z,98081.83
2019-01-13T07:01:33.809Z,98074.80
2019-01-13T07:04:06.398Z,98063.52
2019-01-13T07:06:37.459Z,98073.01
2019-01-13T07:09:13.640Z,98069.27
2019-01-13T07:11:49.276Z,98068.27
2019-01-13T07:14:25.635Z,98053.78
2019-01-13T07:17:02.129Z,98046.19
2019-01-13T07:19:35.646Z,98056.14
2019-01-13T07:22:25.510Z,98064.87
2019-01-13T07:25:04.154Z,98071.81
2019-01-13T07:27:38.536Z,98072.56
2019-01-13T07:30:18.524Z,98074.61
2019-01-13T07:32:58.209Z,98056.16
2019-01-13T07:35:57.168Z,98062.03
2019-01-13T07:38:33.290Z,98060.82
2019-01-13T07:41:07.239Z,98052.05
2019-01-13T07:43:46.225Z,98053.72
2019-01-13T07:46:20.955Z,98046.17
2019-01-13T07:49:04.084Z,98048.81
2019-01-13T07:54:38.207Z,98040.63
2019-01-13T07:57:18.039Z,98038.66
2019-01-13T08:00:06.144Z,98037.34
2019-01-13T08:02:41.321Z,98042.08
2019-01-13T08:05:19.677Z,98031.42
2019-01-13T08:07:57.371Z,98030.73
2019-01-13T08:10:33.744Z,98037.19
2019-01-13T08:13:05.988Z,98034.13
2019-01-13T08:15:39.040Z,98028.75
2019-01-13T08:18:12.345Z,98037.66
2019-01-13T08:20:47.961Z,98039.77
2019-01-13T08:23:21.440Z,98046.15
2019-01-13T08:25:54.961Z,98047.50
2019-01-13T08:28:40.670Z,98054.12
2019-01-13T08:31:17.530Z,98056.17
2019-01-13T08:34:07.311Z,98057.50
2019-01-13T08:36:56.645Z,98054.47
2019-01-13T08:39:31.536Z,98053.75
2019-01-13T08:42:11.288Z,98051.36
2019-01-13T08:44:55.061Z,98053.39
2019-01-13T08:47:30.812Z,98054.08
2019-01-13T08:50:14.952Z,98054.75
2019-01-13T08:52:54.286Z,98036.94
2019-01-13T08:55:31.800Z,98036.34
2019-01-13T08:58:04.701Z,98033.52
2019-01-13T09:00:40.282Z,98030.06
2019-01-13T09:06:10.910Z,98021.95
2019-01-13T09:08:44.177Z,98017.63
2019-01-13T09:11:23.081Z,98018.11
2019-01-13T09:14:03.110Z,98011.53
2019-01-13T09:16:33.019Z,98016.64
2019-01-13T09:19:16.453Z,98010.24
2019-01-13T09:22:17.741Z,98005.42
2019-01-13T09:24:53.831Z,97999.92
2019-01-13T09:27:31.912Z,97995.22
2019-01-13T09:30:19.708Z,97992.72
2019-01-13T09:32:53.335Z,97989.22
2019-01-13T09:35:38.738Z,97989.30
2019-01-13T09:38:13.841Z,97981.40
2019-01-13T09:40:46.532Z,97966.64
2019-01-13T09:43:27.890Z,97968.55
2019-01-13T09:45:59.285Z,97966.95
2019-01-13T09:48:30.918Z,97955.92
2019-01-13T09:51:06.382Z,97952.50
2019-01-13T09:53:37.710Z,97948.72
2019-01-13T09:56:09.276Z,97942.75
2019-01-13T09:58:44.051Z,97936.52
2019-01-13T10:01:16.512Z,97930.94
2019-01-13T10:03:46.349Z,97914.91
2019-01-13T10:06:17.129Z,97908.22
2019-01-13T10:08:46.741Z,97902.96
2019-01-13T10:11:17.420Z,97900.11
2019-01-13T10:13:53.406Z,97899.63
2019-01-13T10:16:26.020Z,97866.09
2019-01-13T10:18:59.500Z,97887.91
2019-01-13T10:21:33.197Z,97888.39
2019-01-13T10:24:05.524Z,97895.84
2019-01-13T10:26:46.561Z,97892.97
2019-01-13T10:29:19.467Z,97885.23
2019-01-13T10:31:49.054Z,97891.52
2019-01-13T10:34:21.764Z,97888.56
2019-01-13T10:36:54.387Z,97870.04
2019-01-13T10:39:27.498Z,97854.17
2019-01-13T10:42:01.515Z,97862.33
2019-01-13T10:44:31.813Z,97863.53
2019-01-13T10:47:07.131Z,97844.70
2019-01-13T10:49:41.743Z,97849.88
2019-01-13T10:52:15.647Z,97840.39
2019-01-13T10:54:45.877Z,97835.48
2019-01-13T10:57:51.041Z,97825.66
2019-01-13T11:00:31.812Z,97809.43
2019-01-13T11:03:22.794Z,97808.16
2019-01-13T11:05:57.886Z,97798.66
2019-01-13T11:08:30.984Z,97790.45
2019-01-13T11:11:13.132Z,97789.94
2019-01-13T11:13:54.877Z,97782.31
2019-01-13T11:16:31.710Z,97769.06
2019-01-13T11:19:06.228Z,97770.22
2019-01-13T11:21:39.955Z,97768.27
2019-01-13T11:24:16.705Z,97769.65
2019-01-13T11:26:53.985Z,97757.45
2019-01-13T11:29:32.803Z,97770.48
2019-01-13T11:32:12.056Z,97764.88
2019-01-13T11:34:44.539Z,97755.73
2019-01-13T11:37:15.570Z,97763.77
2019-01-13T11:39:51.194Z,97765.55
2019-01-13T11:42:23.037Z,97768.84
2019-01-13T11:44:58.117Z,97752.84
2019-01-13T11:47:29.456Z,97742.83
2019-01-13T11:50:00.505Z,97736.36
2019-01-13T11:52:43.216Z,97728.23
2019-01-13T11:55:16.617Z,97732.64
2019-01-13T11:57:46.392Z,97741.50
2019-01-13T12:00:24.941Z,97722.70
2019-01-13T12:02:57.483Z,97723.35
2019-01-13T12:05:37.121Z,97712.94
2019-01-13T12:08:08.839Z,97709.59
2019-01-13T12:10:38.791Z,97705.52
2019-01-13T12:13:08.710Z,97706.71
2019-01-13T12:15:41.293Z,97702.98
2019-01-13T12:18:13.506Z,97710.14
2019-01-13T12:20:46.186Z,97686.52
2019-01-13T12:23:18.658Z,97681.71
2019-01-13T12:25:52.836Z,97681.60
2019-01-13T12:28:25.716Z,97675.73
2019-01-13T12:30:55.582Z,97678.91
2019-01-13T12:33:34.005Z,97689.55
2019-01-13T12:36:08.931Z,97680.62
2019-01-13T12:38:52.761Z,97681.81
2019-01-13T12:41:26.382Z,97679.75
2019-01-13T12:44:06.083Z,97658.33
2019-01-13T12:46:44.316Z,97652.73
2019-01-13T12:49:23.044Z,97643.08
2019-01-13T12:52:01.561Z,97634.16
2019-01-13T12:54:37.428Z,97638.64
2019-01-13T12:57:08.533Z,97642.27
2019-01-13T12:59:44.680Z,97640.55
2019-01-13T13:02:21.595Z,97635.97
2019-01-13T13:05:08.392Z,97649.69
2019-01-13T13:07:49.383Z,97633.92
2019-01-13T13:10:25.949Z,97638.13
2019-01-13T13:13:12.783Z,97637.72
2019-01-13T13:15:46.339Z,97635.55
2019-01-13T13:18:20.596Z,97661.25
2019-01-13T13:21:12.409Z,97652.38
2019-01-13T13:23:47.831Z,97642.20
2019-01-13T13:29:12.244Z,97649.62
2019-01-13T13:31:54.529Z,97637.55
2019-01-13T13:37:21.698Z,97637.47
2019-01-13T13:39:58.350Z,97630.37
2019-01-13T13:42:31.047Z,97645.42
2019-01-13T13:45:06.244Z,97633.64
2019-01-13T13:47:45.670Z,97626.12
2019-01-13T13:50:24.088Z,97626.02
2019-01-13T13:53:04.650Z,97618.70
2019-01-13T13:55:38.856Z,97613.83
2019-01-13T14:04:09.963Z,97611.89
2019-01-13T14:06:51.308Z,97616.98
2019-01-13T14:09:30.415Z,97618.43
2019-01-13T14:12:10.078Z,97612.41
2019-01-13T14:14:43.998Z,97615.44
2019-01-13T14:20:14.818Z,97602.86
2019-01-13T14:22:53.409Z,97588.02
2019-01-13T14:25:34.559Z,97593.45
2019-01-13T14:31:02.992Z,97574.94
2019-01-13T14:33:40.400Z,97572.22
2019-01-13T14:36:23.016Z,97553.02
2019-01-13T14:39:06.376Z,97549.91
2019-01-13T14:41:46.625Z,97542.65
2019-01-13T14:44:17.698Z,97536.66
2019-01-13T14:46:51.692Z,97530.83
2019-01-13T14:49:28.080Z,97535.23
2019-01-13T14:52:09.235Z,97524.13
2019-01-13T14:54:43.492Z,97526.88
2019-01-13T14:57:22.246Z,97524.73
2019-01-13T14:59:54.993Z,97522.93
2019-01-13T15:02:30.745Z,97511.36
2019-01-13T15:05:10.971Z,97518.11
2019-01-13T15:07:44.902Z,97535.88
2019-01-13T15:10:21.907Z,97534.12
2019-01-13T15:12:57.296Z,97520.91
2019-01-13T15:15:28.930Z,97512.50
2019-01-13T15:18:04.101Z,97509.62
2019-01-13T15:20:39.434Z,97499.25
2019-01-13T15:23:11.725Z,97495.77
2019-01-13T15:25:41.339Z,97479.03
2019-01-13T15:28:20.051Z,97486.20
2019-01-13T15:30:54.758Z,97479.86
2019-01-13T15:33:30.424Z,97493.02
2019-01-13T15:36:14.071Z,97491.44
2019-01-13T15:38:47.419Z,97483.17
2019-01-13T15:41:32.057Z,97478.83
2019-01-13T15:44:05.674Z,97468.61
2019-01-13T15:46:42.872Z,97464.88
2019-01-13T15:52:14.963Z,97465.89
2019-01-13T15:54:56.144Z,97469.59
2019-01-13T16:00:26.196Z,97473.11
2019-01-13T16:03:06.025Z,97459.20
2019-01-13T16:08:46.613Z,97453.35
2019-01-13T16:11:22.384Z,97435.53
2019-01-13T16:13:53.026Z,97436.98
2019-01-13T16:16:37.985Z,97438.77
2019-01-13T16:19:16.400Z,97446.62
2019-01-13T16:21:52.104Z,97448.56
2019-01-13T16:24:25.006Z,97440.60
2019-01-13T16:27:04.747Z,97429.88
2019-01-13T16:29:40.163Z,97421.75
2019-01-13T16:32:14.064Z,97411.53
2019-01-13T16:34:44.821Z,97417.69
2019-01-13T16:37:19.642Z,97395.45
2019-01-13T16:39:58.526Z,97404.22
2019-01-13T16:42:35.245Z,97401.94
2019-01-13T16:45:21.884Z,97393.39
2019-01-13T16:48:17.714Z,97398.27
2019-01-13T16:53:50.022Z,97425.92
2019-01-13T16:56:22.673Z,97398.62
2019-01-13T16:59:06.713Z,97411.94
2019-01-13T17:01:41.245Z,97404.95
2019-01-13T17:04:15.071Z,97404.80
2019-01-13T17:06:52.844Z,97393.78
2019-01-13T17:09:23.759Z,97392.32
2019-01-13T17:12:02.141Z,97405.29
2019-01-13T17:14:41.962Z,97405.75
2019-01-13T17:17:15.380Z,97402.67
2019-01-13T17:19:48.838Z,97410.48
2019-01-13T17:22:21.374Z,97412.77
2019-01-13T17:24:55.474Z,97407.38
2019-01-13T17:27:26.878Z,97401.52
2019-01-13T17:30:00.187Z,97397.01
2019-01-13T17:32:34.346Z,97393.91
2019-01-13T17:35:07.265Z,97395.34
2019-01-13T17:37:38.124Z,97400.27
2019-01-13T17:40:16.417Z,97398.57
2019-01-13T17:42:46.062Z,97399.69
2019-01-13T17:45:19.069Z,97406.37
2019-01-13T17:47:54.665Z,97387.36
2019-01-13T17:50:27.349Z,97401.13
2019-01-13T17:53:00.896Z,97386.23
2019-01-13T17:55:37.005Z,97391.75
2019-01-13T17:58:09.496Z,97386.77
2019-01-13T18:00:48.015Z,97384.31
2019-01-13T18:03:25.569Z,97367.55
2019-01-13T18:06:01.192Z,97371.89
2019-01-13T18:08:46.797Z,97356.97
2019-01-13T18:11:21.403Z,97362.83
2019-01-13T18:13:53.481Z,97365.75
2019-01-13T18:16:31.592Z,97364.28
2019-01-13T18:19:06.696Z,97351.94
2019-01-13T18:21:47.606Z,97338.56
2019-01-13T18:24:26.342Z,97336.94
2019-01-13T18:26:58.803Z,97330.59
2019-01-13T18:29:31.366Z,97316.66
2019-01-13T18:32:16.653Z,97311.81
2019-01-13T18:34:51.084Z,97303.97
2019-01-13T18:37:31.526Z,97306.42
2019-01-13T18:40:11.473Z,97302.36
2019-01-13T18:42:47.736Z,97309.05
2019-01-13T18:45:21.386Z,97315.70
2019-01-13T18:48:00.874Z,97328.07
2019-01-13T18:50:34.907Z,97334.09
2019-01-13T18:53:11.317Z,97330.68
2019-01-13T18:55:43.118Z,97339.57
2019-01-13T18:58:18.430Z,97320.89
2019-01-13T19:00:56.171Z,97311.79
2019-01-13T19:03:35.277Z,97303.99
2019-01-13T19:06:12.978Z,97320.55
2019-01-13T19:08:51.599Z,97313.13
2019-01-13T19:11:25.921Z,97319.59
2019-01-13T19:14:03.110Z,97325.94
2019-01-13T19:19:43.743Z,97321.84
2019-01-13T19:22:20.562Z,97325.41
2019-01-13T19:24:54.702Z,97319.88
2019-01-13T19:27:38.099Z,97324.41
2019-01-13T19:30:29.622Z,97328.02
2019-01-13T19:33:12.963Z,97344.42
2019-01-13T19:35:46.451Z,97359.20
2019-01-13T19:38:28.220Z,97352.27
2019-01-13T19:41:07.496Z,97352.60
2019-01-13T19:43:48.045Z,97351.48
2019-01-13T19:46:30.686Z,97343.97
2019-01-13T19:49:16.026Z,97354.38
2019-01-13T19:51:54.067Z,97376.22
2019-01-13T19:54:34.837Z,97376.37
2019-01-13T19:57:15.442Z,97376.27
2019-01-13T19:59:52.289Z,97368.95
2019-01-13T20:02:34.801Z,97367.94
2019-01-13T20:05:11.759Z,97362.86
2019-01-13T20:07:41.879Z,97367.44
2019-01-13T20:10:22.690Z,97365.16
2019-01-13T20:12:56.478Z,97364.80
2019-01-13T20:15:29.509Z,97349.52
2019-01-13T20:18:04.617Z,97350.47
2019-01-13T20:20:53.529Z,97354.76
2019-01-13T20:23:30.237Z,97348.08
2019-01-13T20:32:07.406Z,97339.34
2019-01-13T20:34:41.869Z,97339.18
2019-01-13T20:37:25.432Z,97332.34
2019-01-13T20:40:04.393Z,97324.07
2019-01-13T20:42:37.228Z,97341.16
2019-01-13T20:45:11.985Z,97348.11
2019-01-13T20:47:41.632Z,97353.31
2019-01-13T20:50:24.506Z,97347.77
2019-01-13T20:53:00.401Z,97347.86
2019-01-13T20:55:46.746Z,97350.95
2019-01-13T20:58:23.494Z,97341.48
2019-01-13T21:00:54.738Z,97339.05
2019-01-13T21:03:25.971Z,97333.19
2019-01-13T21:09:07.770Z,97347.27
2019-01-13T21:11:46.667Z,97346.73
2019-01-13T21:14:42.738Z,97348.56
2019-01-13T21:17:19.618Z,97350.20
2019-01-13T21:19:57.322Z,97354.76
2019-01-13T21:22:43.816Z,97362.97
2019-01-13T21:25:43.856Z,97353.25
2019-01-13T21:28:19.464Z,97354.98
2019-01-13T21:30:53.291Z,97362.30
2019-01-13T21:33:35.155Z,97348.42
2019-01-13T21:36:10.624Z,97333.84
2019-01-13T21:38:46.996Z,97335.06
2019-01-13T21:41:19.725Z,97344.34
2019-01-13T21:43:51.107Z,97344.73
2019-01-13T21:46:26.579Z,97342.75
2019-01-13T21:49:05.029Z,97343.48
2019-01-13T21:51:53.823Z,97339.80
2019-01-13T21:57:35.316Z,97357.42
2019-01-13T22:00:21.259Z,97357.20
2019-01-13T22:03:13.670Z,97364.94
2019-01-13T22:05:57.228Z,97375.81
2019-01-13T22:08:28.091Z,97383.81
2019-01-13T22:11:01.081Z,97403.02
2019-01-13T22:13:37.235Z,97398.58
2019-01-13T22:16:08.993Z,97425.14
2019-01-13T22:19:00.206Z,97427.20
2019-01-13T22:21:47.224Z,97432.87
2019-01-13T22:24:25.345Z,97420.05
2019-01-13T22:27:11.977Z,97419.02
2019-01-13T22:29:53.518Z,97412.11
2019-01-13T22:32:26.920Z,97416.36
2019-01-13T22:35:08.706Z,97420.28
2019-01-13T22:38:03.006Z,97402.51
2019-01-13T22:40:35.366Z,97410.93
2019-01-13T22:43:07.328Z,97417.49
2019-01-13T22:45:39.896Z,97426.30
2019-01-13T22:48:09.507Z,97434.00
2019-01-13T22:50:44.446Z,97434.78
2019-01-13T22:53:15.820Z,97434.73
2019-01-13T22:55:46.908Z,97435.69
2019-01-13T22:58:16.554Z,97437.92
2019-01-13T23:00:54.649Z,97427.52
2019-01-13T23:03:29.027Z,97437.63
2019-01-13T23:06:12.402Z,97438.64
2019-01-13T23:08:46.610Z,97442.27
2019-01-13T23:14:12.408Z,97443.34
2019-01-13T23:16:46.282Z,97445.03
2019-01-13T23:19:19.760Z,97452.27
2019-01-13T23:22:11.033Z,97449.59
2019-01-13T23:24:44.581Z,97450.23
2019-01-13T23:27:14.147Z,97448.10
2019-01-13T23:29:51.575Z,97446.95
2019-01-13T23:32:22.987Z,97457.88
2019-01-13T23:35:01.539Z,97452.69
2019-01-13T23:37:35.613Z,97457.55
2019-01-13T23:40:08.039Z,97457.00
2019-01-13T23:42:37.620Z,97457.79
2019-01-13T23:45:10.766Z,97463.74
2019-01-13T23:47:40.350Z,97456.64
2019-01-13T23:50:11.767Z,97452.44
2019-01-13T23:52:48.153Z,97458.14
2019-01-13T23:55:20.837Z,97457.48
2019-01-13T23:58:05.937Z,97464.74
